This is the latest recevied weather packets stored in our database for station/object KB1JLI. If no packets are shown the sender has not sent any weather packets the latest 10 day(s).
| Time | Temp. | Humidity | Pressure | Rain* | Wind** | Luminosity | Snow |
|---|---|---|---|---|---|---|---|
| 1777987446 | 18.89° C | 59% | 1010.1 hPa | 0 mm | - | 56 W/m² | - |
| 1777987144 | 18.89° C | 60% | 1009.9 hPa | 0 mm | - | 82 W/m² | - |
| 1777986840 | 19.44° C | 58% | 1009.8 hPa | 0 mm | - | 159 W/m² | - |
| 1777986538 | 19.44° C | 58% | 1009.7 hPa | 0 mm | - | 499 W/m² | - |
| 1777986236 | 18.89° C | 59% | 1010 hPa | 0 mm | - | 409 W/m² | - |
| 1777985933 | 18.89° C | 60% | 1010 hPa | 0 mm | - | 375 W/m² | - |
| 1777985631 | 18.33° C | 62% | 1009.8 hPa | 0 mm | - | 379 W/m² | - |
| 1777985327 | 18.33° C | 61% | 1009.8 hPa | 0 mm | - | 379 W/m² | - |
| 1777985024 | 17.78° C | 62% | 1009.6 hPa | 0 mm | - | 431 W/m² | - |
| 1777984720 | 17.78° C | 63% | 1009.9 hPa | 0 mm | - | 218 W/m² | - |
| 1777984417 | 18.33° C | 62% | 1009.9 hPa | 0 mm | - | 237 W/m² | - |
| 1777984112 | 18.33° C | 61% | 1009.9 hPa | 0 mm | - | 257 W/m² | - |
| 1777983810 | 17.78° C | 62% | 1010 hPa | 0 mm | - | 391 W/m² | - |
| 1777983507 | 17.22° C | 64% | 1009.9 hPa | 0 mm | - | 317 W/m² | - |
| 1777983204 | 17.22° C | 64% | 1009.8 hPa | 0 mm | - | 149 W/m² | - |
| 1777982900 | 17.22° C | 64% | 1009.8 hPa | 0 mm | - | 210 W/m² | - |
| 1777982596 | 16.67° C | 65% | 1009.7 hPa | 0 mm | - | 149 W/m² | - |
| 1777982294 | 16.67° C | 65% | 1009.7 hPa | 0 mm | - | 254 W/m² | - |
| 1777981992 | 16.11° C | 68% | 1009.7 hPa | 0 mm | - | 168 W/m² | - |
| 1777981689 | 16.11° C | 67% | 1009.7 hPa | 0 mm | - | 201 W/m² | - |
| 1777981385 | 15.56° C | 68% | 1009.7 hPa | 0 mm | - | 53 W/m² | - |
| 1777981083 | 15.56° C | 69% | 1009.7 hPa | 0 mm | - | 179 W/m² | - |
| 1777980779 | 15.56° C | 69% | 1009.5 hPa | 0 mm | - | 51 W/m² | - |
| 1777980474 | 15° C | 70% | 1009.6 hPa | 0 mm | - | 49 W/m² | - |
| 1777980172 | 14.44° C | 71% | 1009.7 hPa | 0 mm | - | 47 W/m² | - |
* Rain latest hour (hover to see other rain measurements)
** Current wind speed in m/s (hover to see current wind gust speed)